sensor_id;sensor_type;location;lat;lon;timestamp;temperature;humidity
5017;DHT22;2527;50.892;16.706;2024-03-06T00:02:04;10.00;99.90
5017;DHT22;2527;50.892;16.706;2024-03-06T00:04:29;10.00;99.90
5017;DHT22;2527;50.892;16.706;2024-03-06T00:06:55;10.00;99.90
5017;DHT22;2527;50.892;16.706;2024-03-06T00:09:23;10.00;99.90
5017;DHT22;2527;50.892;16.706;2024-03-06T00:11:48;10.00;99.90
5017;DHT22;2527;50.892;16.706;2024-03-06T00:14:16;10.00;99.90
5017;DHT22;2527;50.892;16.706;2024-03-06T00:16:45;10.00;99.90
5017;DHT22;2527;50.892;16.706;2024-03-06T00:19:11;10.00;99.90
5017;DHT22;2527;50.892;16.706;2024-03-06T00:21:36;10.00;99.90
5017;DHT22;2527;50.892;16.706;2024-03-06T00:24:02;10.00;99.90
5017;DHT22;2527;50.892;16.706;2024-03-06T00:26:29;10.00;99.90
5017;DHT22;2527;50.892;16.706;2024-03-06T00:28:56;10.00;99.90
5017;DHT22;2527;50.892;16.706;2024-03-06T00:31:22;10.00;99.90
5017;DHT22;2527;50.892;16.706;2024-03-06T00:33:47;10.00;99.90
5017;DHT22;2527;50.892;16.706;2024-03-06T00:36:13;10.00;99.90
5017;DHT22;2527;50.892;16.706;2024-03-06T00:38:39;10.00;99.90
5017;DHT22;2527;50.892;16.706;2024-03-06T00:41:06;9.90;99.90
5017;DHT22;2527;50.892;16.706;2024-03-06T00:43:34;10.00;99.90
5017;DHT22;2527;50.892;16.706;2024-03-06T00:45:59;10.00;99.90
5017;DHT22;2527;50.892;16.706;2024-03-06T00:48:25;9.90;99.90
5017;DHT22;2527;50.892;16.706;2024-03-06T00:50:51;10.00;99.90
5017;DHT22;2527;50.892;16.706;2024-03-06T00:53:16;9.90;99.90
5017;DHT22;2527;50.892;16.706;2024-03-06T00:55:45;9.90;99.90
5017;DHT22;2527;50.892;16.706;2024-03-06T00:58:10;9.90;99.90
5017;DHT22;2527;50.892;16.706;2024-03-06T01:00:36;9.90;99.90
5017;DHT22;2527;50.892;16.706;2024-03-06T01:03:02;9.90;99.90
5017;DHT22;2527;50.892;16.706;2024-03-06T01:05:28;9.90;99.90
5017;DHT22;2527;50.892;16.706;2024-03-06T01:07:54;9.90;99.90
5017;DHT22;2527;50.892;16.706;2024-03-06T01:10:20;9.90;99.90
5017;DHT22;2527;50.892;16.706;2024-03-06T01:12:45;9.90;99.90
5017;DHT22;2527;50.892;16.706;2024-03-06T01:15:11;9.90;99.90
5017;DHT22;2527;50.892;16.706;2024-03-06T01:17:37;9.80;99.90
5017;DHT22;2527;50.892;16.706;2024-03-06T01:20:04;9.90;99.90
5017;DHT22;2527;50.892;16.706;2024-03-06T01:22:33;9.90;99.90
5017;DHT22;2527;50.892;16.706;2024-03-06T01:24:58;9.80;99.90
5017;DHT22;2527;50.892;16.706;2024-03-06T01:27:24;9.80;99.90
5017;DHT22;2527;50.892;16.706;2024-03-06T01:29:50;9.90;99.90
5017;DHT22;2527;50.892;16.706;2024-03-06T01:32:16;9.90;99.90
5017;DHT22;2527;50.892;16.706;2024-03-06T01:34:41;9.90;99.90
5017;DHT22;2527;50.892;16.706;2024-03-06T01:37:07;9.90;99.90
5017;DHT22;2527;50.892;16.706;2024-03-06T01:39:33;9.90;99.90
5017;DHT22;2527;50.892;16.706;2024-03-06T01:42:03;10.00;99.90
5017;DHT22;2527;50.892;16.706;2024-03-06T01:44:30;9.90;99.90
5017;DHT22;2527;50.892;16.706;2024-03-06T01:46:56;10.00;99.90
5017;DHT22;2527;50.892;16.706;2024-03-06T01:49:22;9.90;99.90
5017;DHT22;2527;50.892;16.706;2024-03-06T01:51:51;9.90;99.90
5017;DHT22;2527;50.892;16.706;2024-03-06T01:54:18;9.90;99.90
5017;DHT22;2527;50.892;16.706;2024-03-06T01:56:45;9.90;99.90
5017;DHT22;2527;50.892;16.706;2024-03-06T01:59:15;9.90;99.90
5017;DHT22;2527;50.892;16.706;2024-03-06T02:01:41;9.90;99.90
5017;DHT22;2527;50.892;16.706;2024-03-06T02:04:06;10.00;99.90
5017;DHT22;2527;50.892;16.706;2024-03-06T02:06:35;9.90;99.90
5017;DHT22;2527;50.892;16.706;2024-03-06T02:09:01;9.90;99.90
5017;DHT22;2527;50.892;16.706;2024-03-06T02:11:28;10.00;99.90
5017;DHT22;2527;50.892;16.706;2024-03-06T02:13:57;9.90;99.90
5017;DHT22;2527;50.892;16.706;2024-03-06T02:16:24;9.90;99.90
5017;DHT22;2527;50.892;16.706;2024-03-06T02:18:56;9.90;99.90
5017;DHT22;2527;50.892;16.706;2024-03-06T02:21:25;9.90;99.90
5017;DHT22;2527;50.892;16.706;2024-03-06T02:23:51;9.90;99.90
5017;DHT22;2527;50.892;16.706;2024-03-06T02:26:17;9.90;99.90
5017;DHT22;2527;50.892;16.706;2024-03-06T02:28:47;9.90;99.90
5017;DHT22;2527;50.892;16.706;2024-03-06T02:31:13;9.90;99.90
5017;DHT22;2527;50.892;16.706;2024-03-06T02:33:39;9.90;99.90
5017;DHT22;2527;50.892;16.706;2024-03-06T02:36:05;9.90;99.90
5017;DHT22;2527;50.892;16.706;2024-03-06T02:38:31;9.90;99.90
5017;DHT22;2527;50.892;16.706;2024-03-06T02:40:56;9.90;99.90
5017;DHT22;2527;50.892;16.706;2024-03-06T02:43:24;9.90;99.90
5017;DHT22;2527;50.892;16.706;2024-03-06T02:45:51;9.90;99.90
5017;DHT22;2527;50.892;16.706;2024-03-06T02:48:17;9.90;99.90
5017;DHT22;2527;50.892;16.706;2024-03-06T02:50:44;9.90;99.90
5017;DHT22;2527;50.892;16.706;2024-03-06T02:53:10;9.90;99.90
5017;DHT22;2527;50.892;16.706;2024-03-06T02:55:36;9.90;99.90
5017;DHT22;2527;50.892;16.706;2024-03-06T02:58:02;9.90;99.90
5017;DHT22;2527;50.892;16.706;2024-03-06T03:00:28;9.90;99.90
5017;DHT22;2527;50.892;16.706;2024-03-06T03:02:54;9.90;99.90
5017;DHT22;2527;50.892;16.706;2024-03-06T03:05:19;9.90;99.90
5017;DHT22;2527;50.892;16.706;2024-03-06T03:07:45;9.90;99.90
5017;DHT22;2527;50.892;16.706;2024-03-06T03:10:11;9.90;99.90
5017;DHT22;2527;50.892;16.706;2024-03-06T03:12:40;9.80;99.90
5017;DHT22;2527;50.892;16.706;2024-03-06T03:15:07;9.80;99.90
5017;DHT22;2527;50.892;16.706;2024-03-06T03:17:33;9.80;99.90
5017;DHT22;2527;50.892;16.706;2024-03-06T03:20:02;9.80;99.90
5017;DHT22;2527;50.892;16.706;2024-03-06T03:22:36;9.80;99.90
5017;DHT22;2527;50.892;16.706;2024-03-06T03:25:02;9.80;99.90
5017;DHT22;2527;50.892;16.706;2024-03-06T03:27:27;9.80;99.90
5017;DHT22;2527;50.892;16.706;2024-03-06T03:29:54;9.70;99.90
5017;DHT22;2527;50.892;16.706;2024-03-06T03:32:19;9.70;99.90
5017;DHT22;2527;50.892;16.706;2024-03-06T03:34:45;9.70;99.90
5017;DHT22;2527;50.892;16.706;2024-03-06T03:37:12;9.70;99.90
5017;DHT22;2527;50.892;16.706;2024-03-06T03:39:39;9.70;99.90
5017;DHT22;2527;50.892;16.706;2024-03-06T03:42:06;9.80;99.90
5017;DHT22;2527;50.892;16.706;2024-03-06T03:44:32;9.70;99.90
5017;DHT22;2527;50.892;16.706;2024-03-06T03:46:58;9.80;99.90
5017;DHT22;2527;50.892;16.706;2024-03-06T03:49:23;9.80;99.90
5017;DHT22;2527;50.892;16.706;2024-03-06T03:51:49;9.80;99.90
5017;DHT22;2527;50.892;16.706;2024-03-06T03:54:15;9.80;99.90
5017;DHT22;2527;50.892;16.706;2024-03-06T03:56:41;9.80;99.90
5017;DHT22;2527;50.892;16.706;2024-03-06T03:59:06;9.80;99.90
5017;DHT22;2527;50.892;16.706;2024-03-06T04:01:33;9.70;99.90
5017;DHT22;2527;50.892;16.706;2024-03-06T04:03:59;9.70;99.90
5017;DHT22;2527;50.892;16.706;2024-03-06T04:06:24;9.70;99.90
5017;DHT22;2527;50.892;16.706;2024-03-06T04:08:50;9.70;99.90
5017;DHT22;2527;50.892;16.706;2024-03-06T04:11:16;9.70;99.90
5017;DHT22;2527;50.892;16.706;2024-03-06T04:13:42;9.70;99.90
5017;DHT22;2527;50.892;16.706;2024-03-06T04:16:07;9.80;99.90
5017;DHT22;2527;50.892;16.706;2024-03-06T04:18:34;9.70;99.90
5017;DHT22;2527;50.892;16.706;2024-03-06T04:21:05;9.70;99.90
5017;DHT22;2527;50.892;16.706;2024-03-06T04:23:32;9.80;99.90
5017;DHT22;2527;50.892;16.706;2024-03-06T04:26:00;9.80;99.90
5017;DHT22;2527;50.892;16.706;2024-03-06T04:28:27;9.70;99.90
5017;DHT22;2527;50.892;16.706;2024-03-06T04:30:54;9.70;99.90
5017;DHT22;2527;50.892;16.706;2024-03-06T04:33:19;9.70;99.90
5017;DHT22;2527;50.892;16.706;2024-03-06T04:35:45;9.70;99.90
5017;DHT22;2527;50.892;16.706;2024-03-06T04:38:12;9.70;99.90
5017;DHT22;2527;50.892;16.706;2024-03-06T04:40:40;9.60;99.90
5017;DHT22;2527;50.892;16.706;2024-03-06T04:43:12;9.60;99.90
5017;DHT22;2527;50.892;16.706;2024-03-06T04:45:38;9.60;99.90
5017;DHT22;2527;50.892;16.706;2024-03-06T04:48:04;9.70;99.90
5017;DHT22;2527;50.892;16.706;2024-03-06T04:50:31;9.60;99.90
5017;DHT22;2527;50.892;16.706;2024-03-06T04:52:56;9.60;99.90
5017;DHT22;2527;50.892;16.706;2024-03-06T04:55:23;9.60;99.90
5017;DHT22;2527;50.892;16.706;2024-03-06T04:57:51;9.60;99.90
5017;DHT22;2527;50.892;16.706;2024-03-06T05:00:17;9.60;99.90
5017;DHT22;2527;50.892;16.706;2024-03-06T05:02:44;9.60;99.90
5017;DHT22;2527;50.892;16.706;2024-03-06T05:05:10;9.60;99.90
5017;DHT22;2527;50.892;16.706;2024-03-06T05:07:36;9.60;99.90
5017;DHT22;2527;50.892;16.706;2024-03-06T05:10:03;9.60;99.90
5017;DHT22;2527;50.892;16.706;2024-03-06T05:12:29;9.60;99.90
5017;DHT22;2527;50.892;16.706;2024-03-06T05:14:55;9.60;99.90
5017;DHT22;2527;50.892;16.706;2024-03-06T05:17:21;9.50;99.90
5017;DHT22;2527;50.892;16.706;2024-03-06T05:19:47;9.50;99.90
5017;DHT22;2527;50.892;16.706;2024-03-06T05:22:16;9.50;99.90
5017;DHT22;2527;50.892;16.706;2024-03-06T05:24:42;9.50;99.90
5017;DHT22;2527;50.892;16.706;2024-03-06T05:27:09;9.40;99.90
5017;DHT22;2527;50.892;16.706;2024-03-06T05:29:36;9.40;99.90
5017;DHT22;2527;50.892;16.706;2024-03-06T05:32:02;9.40;99.90
5017;DHT22;2527;50.892;16.706;2024-03-06T05:34:29;9.40;99.90
5017;DHT22;2527;50.892;16.706;2024-03-06T05:36:57;9.40;99.90
5017;DHT22;2527;50.892;16.706;2024-03-06T05:39:24;9.30;99.90
5017;DHT22;2527;50.892;16.706;2024-03-06T05:41:50;9.30;99.90
5017;DHT22;2527;50.892;16.706;2024-03-06T05:44:15;9.30;99.90
5017;DHT22;2527;50.892;16.706;2024-03-06T05:46:42;9.30;99.90
5017;DHT22;2527;50.892;16.706;2024-03-06T05:49:08;9.30;99.90
5017;DHT22;2527;50.892;16.706;2024-03-06T05:51:33;9.30;99.90
5017;DHT22;2527;50.892;16.706;2024-03-06T05:54:01;9.30;99.90
5017;DHT22;2527;50.892;16.706;2024-03-06T05:56:30;9.30;99.90
5017;DHT22;2527;50.892;16.706;2024-03-06T05:58:55;9.30;99.90
5017;DHT22;2527;50.892;16.706;2024-03-06T06:01:21;9.30;99.90
5017;DHT22;2527;50.892;16.706;2024-03-06T06:03:48;9.30;99.90
5017;DHT22;2527;50.892;16.706;2024-03-06T06:06:17;9.30;99.90
5017;DHT22;2527;50.892;16.706;2024-03-06T06:08:45;9.30;99.90
5017;DHT22;2527;50.892;16.706;2024-03-06T06:11:11;9.30;99.90
5017;DHT22;2527;50.892;16.706;2024-03-06T06:13:38;9.20;99.90
5017;DHT22;2527;50.892;16.706;2024-03-06T06:16:05;9.20;99.90
5017;DHT22;2527;50.892;16.706;2024-03-06T06:18:32;9.20;99.90
5017;DHT22;2527;50.892;16.706;2024-03-06T06:21:03;9.20;99.90
5017;DHT22;2527;50.892;16.706;2024-03-06T06:23:32;9.20;99.90
5017;DHT22;2527;50.892;16.706;2024-03-06T06:25:58;9.20;99.90
5017;DHT22;2527;50.892;16.706;2024-03-06T06:28:25;9.20;99.90
5017;DHT22;2527;50.892;16.706;2024-03-06T06:30:50;9.20;99.90
5017;DHT22;2527;50.892;16.706;2024-03-06T06:33:18;9.20;99.90
5017;DHT22;2527;50.892;16.706;2024-03-06T06:35:46;10.70;99.90
5017;DHT22;2527;50.892;16.706;2024-03-06T06:38:13;9.20;99.90
5017;DHT22;2527;50.892;16.706;2024-03-06T06:40:39;9.20;99.90
5017;DHT22;2527;50.892;16.706;2024-03-06T06:43:06;9.20;99.90
5017;DHT22;2527;50.892;16.706;2024-03-06T06:45:31;9.30;99.90
5017;DHT22;2527;50.892;16.706;2024-03-06T06:47:57;9.30;99.90
5017;DHT22;2527;50.892;16.706;2024-03-06T06:50:23;9.40;99.90
5017;DHT22;2527;50.892;16.706;2024-03-06T06:52:51;9.50;99.90
5017;DHT22;2527;50.892;16.706;2024-03-06T06:55:17;9.70;99.90
5017;DHT22;2527;50.892;16.706;2024-03-06T06:57:43;9.70;99.90
5017;DHT22;2527;50.892;16.706;2024-03-06T07:00:09;9.90;99.90
5017;DHT22;2527;50.892;16.706;2024-03-06T07:02:38;10.00;99.90
5017;DHT22;2527;50.892;16.706;2024-03-06T07:05:07;10.20;99.90
5017;DHT22;2527;50.892;16.706;2024-03-06T07:07:33;10.20;99.90
5017;DHT22;2527;50.892;16.706;2024-03-06T07:09:59;10.30;99.90
5017;DHT22;2527;50.892;16.706;2024-03-06T07:12:25;10.40;99.90
5017;DHT22;2527;50.892;16.706;2024-03-06T07:14:53;10.50;99.90
5017;DHT22;2527;50.892;16.706;2024-03-06T07:17:25;10.50;99.90
5017;DHT22;2527;50.892;16.706;2024-03-06T07:19:51;10.60;99.90
5017;DHT22;2527;50.892;16.706;2024-03-06T07:22:18;10.60;99.90
5017;DHT22;2527;50.892;16.706;2024-03-06T07:24:44;10.70;99.90
5017;DHT22;2527;50.892;16.706;2024-03-06T07:27:10;10.80;99.90
5017;DHT22;2527;50.892;16.706;2024-03-06T07:29:37;10.80;99.90
5017;DHT22;2527;50.892;16.706;2024-03-06T07:32:02;10.90;99.90
5017;DHT22;2527;50.892;16.706;2024-03-06T07:34:29;10.90;99.90
5017;DHT22;2527;50.892;16.706;2024-03-06T07:36:56;11.00;99.90
5017;DHT22;2527;50.892;16.706;2024-03-06T07:39:22;11.00;99.90
5017;DHT22;2527;50.892;16.706;2024-03-06T07:41:49;11.10;99.90
5017;DHT22;2527;50.892;16.706;2024-03-06T07:44:15;11.10;99.90
5017;DHT22;2527;50.892;16.706;2024-03-06T07:46:41;11.10;99.90
5017;DHT22;2527;50.892;16.706;2024-03-06T07:49:07;11.20;99.90
5017;DHT22;2527;50.892;16.706;2024-03-06T07:51:34;11.20;99.90
5017;DHT22;2527;50.892;16.706;2024-03-06T07:54:03;11.20;99.90
5017;DHT22;2527;50.892;16.706;2024-03-06T07:56:31;11.30;99.90
5017;DHT22;2527;50.892;16.706;2024-03-06T07:58:58;11.30;99.90
5017;DHT22;2527;50.892;16.706;2024-03-06T08:01:24;11.40;99.90
5017;DHT22;2527;50.892;16.706;2024-03-06T08:03:49;11.30;99.90
5017;DHT22;2527;50.892;16.706;2024-03-06T08:06:15;11.30;99.90
5017;DHT22;2527;50.892;16.706;2024-03-06T08:08:42;11.30;99.90
5017;DHT22;2527;50.892;16.706;2024-03-06T08:11:09;11.20;99.90
5017;DHT22;2527;50.892;16.706;2024-03-06T08:13:36;11.20;99.90
5017;DHT22;2527;50.892;16.706;2024-03-06T08:16:03;11.10;99.90
5017;DHT22;2527;50.892;16.706;2024-03-06T08:18:29;11.10;99.90
5017;DHT22;2527;50.892;16.706;2024-03-06T08:20:56;11.20;99.90
5017;DHT22;2527;50.892;16.706;2024-03-06T08:23:22;11.20;99.90
5017;DHT22;2527;50.892;16.706;2024-03-06T08:25:50;11.20;99.90
5017;DHT22;2527;50.892;16.706;2024-03-06T08:28:16;11.30;99.90
5017;DHT22;2527;50.892;16.706;2024-03-06T08:30:41;11.30;99.90
5017;DHT22;2527;50.892;16.706;2024-03-06T08:33:10;11.40;99.90
5017;DHT22;2527;50.892;16.706;2024-03-06T08:35:35;11.40;99.90
5017;DHT22;2527;50.892;16.706;2024-03-06T08:38:01;11.20;99.90
5017;DHT22;2527;50.892;16.706;2024-03-06T08:40:26;11.40;99.90
5017;DHT22;2527;50.892;16.706;2024-03-06T08:42:55;11.40;99.90
5017;DHT22;2527;50.892;16.706;2024-03-06T08:45:24;11.50;99.90
5017;DHT22;2527;50.892;16.706;2024-03-06T08:47:51;11.50;99.90
5017;DHT22;2527;50.892;16.706;2024-03-06T08:50:20;11.60;99.90
5017;DHT22;2527;50.892;16.706;2024-03-06T08:52:46;11.60;99.90
5017;DHT22;2527;50.892;16.706;2024-03-06T08:55:12;11.60;99.90
5017;DHT22;2527;50.892;16.706;2024-03-06T08:57:38;11.70;99.90
5017;DHT22;2527;50.892;16.706;2024-03-06T09:00:04;11.70;99.90
5017;DHT22;2527;50.892;16.706;2024-03-06T09:02:34;11.70;99.90
5017;DHT22;2527;50.892;16.706;2024-03-06T09:04:59;11.70;99.90
5017;DHT22;2527;50.892;16.706;2024-03-06T09:07:26;11.80;99.90
5017;DHT22;2527;50.892;16.706;2024-03-06T09:09:52;11.80;99.90
5017;DHT22;2527;50.892;16.706;2024-03-06T09:12:18;11.80;99.90
5017;DHT22;2527;50.892;16.706;2024-03-06T09:14:45;11.90;99.90
5017;DHT22;2527;50.892;16.706;2024-03-06T09:17:16;11.90;99.90
5017;DHT22;2527;50.892;16.706;2024-03-06T09:19:42;12.00;99.90
5017;DHT22;2527;50.892;16.706;2024-03-06T09:22:08;12.00;99.90
5017;DHT22;2527;50.892;16.706;2024-03-06T09:24:36;12.00;99.90
5017;DHT22;2527;50.892;16.706;2024-03-06T09:27:05;12.00;99.90
5017;DHT22;2527;50.892;16.706;2024-03-06T09:29:33;12.10;99.90
5017;DHT22;2527;50.892;16.706;2024-03-06T09:31:58;12.20;99.90
5017;DHT22;2527;50.892;16.706;2024-03-06T09:34:26;12.20;99.90
5017;DHT22;2527;50.892;16.706;2024-03-06T09:36:52;12.20;99.90
5017;DHT22;2527;50.892;16.706;2024-03-06T09:39:19;12.30;99.90
5017;DHT22;2527;50.892;16.706;2024-03-06T09:41:59;12.30;99.90
5017;DHT22;2527;50.892;16.706;2024-03-06T09:44:27;12.30;99.90
5017;DHT22;2527;50.892;16.706;2024-03-06T09:46:54;12.30;99.90
5017;DHT22;2527;50.892;16.706;2024-03-06T09:49:26;12.40;99.90
5017;DHT22;2527;50.892;16.706;2024-03-06T09:51:52;12.40;99.90
5017;DHT22;2527;50.892;16.706;2024-03-06T09:54:19;12.50;99.90
5017;DHT22;2527;50.892;16.706;2024-03-06T09:56:48;12.40;99.90
5017;DHT22;2527;50.892;16.706;2024-03-06T09:59:13;12.40;99.90
5017;DHT22;2527;50.892;16.706;2024-03-06T10:01:49;12.40;99.90
5017;DHT22;2527;50.892;16.706;2024-03-06T10:04:19;12.30;99.90
5017;DHT22;2527;50.892;16.706;2024-03-06T10:06:45;12.30;99.90
5017;DHT22;2527;50.892;16.706;2024-03-06T10:09:11;12.30;99.90
5017;DHT22;2527;50.892;16.706;2024-03-06T10:11:40;12.30;99.90
5017;DHT22;2527;50.892;16.706;2024-03-06T10:14:07;12.20;99.90
5017;DHT22;2527;50.892;16.706;2024-03-06T10:16:33;12.20;99.90
5017;DHT22;2527;50.892;16.706;2024-03-06T10:19:17;12.20;99.90
5017;DHT22;2527;50.892;16.706;2024-03-06T10:21:44;12.10;99.90
5017;DHT22;2527;50.892;16.706;2024-03-06T10:24:10;12.10;99.90
5017;DHT22;2527;50.892;16.706;2024-03-06T10:26:36;12.10;99.90
5017;DHT22;2527;50.892;16.706;2024-03-06T10:29:04;12.10;99.90
5017;DHT22;2527;50.892;16.706;2024-03-06T10:31:32;12.10;99.90
5017;DHT22;2527;50.892;16.706;2024-03-06T10:34:02;12.00;99.90
5017;DHT22;2527;50.892;16.706;2024-03-06T10:36:31;12.00;99.90
5017;DHT22;2527;50.892;16.706;2024-03-06T10:38:57;12.10;99.90
5017;DHT22;2527;50.892;16.706;2024-03-06T10:41:25;12.00;99.90
5017;DHT22;2527;50.892;16.706;2024-03-06T10:43:53;12.00;99.90
5017;DHT22;2527;50.892;16.706;2024-03-06T10:46:21;12.00;99.90
5017;DHT22;2527;50.892;16.706;2024-03-06T10:48:47;12.00;99.90
5017;DHT22;2527;50.892;16.706;2024-03-06T10:51:15;12.00;99.90
5017;DHT22;2527;50.892;16.706;2024-03-06T10:53:41;12.00;99.90
5017;DHT22;2527;50.892;16.706;2024-03-06T10:56:08;12.00;99.90
5017;DHT22;2527;50.892;16.706;2024-03-06T10:58:35;12.00;99.90
5017;DHT22;2527;50.892;16.706;2024-03-06T11:01:02;12.00;99.90
5017;DHT22;2527;50.892;16.706;2024-03-06T11:03:30;12.00;99.90
5017;DHT22;2527;50.892;16.706;2024-03-06T11:06:02;12.00;99.90
5017;DHT22;2527;50.892;16.706;2024-03-06T11:08:33;12.10;99.90
5017;DHT22;2527;50.892;16.706;2024-03-06T11:13:44;12.10;99.90
5017;DHT22;2527;50.892;16.706;2024-03-06T11:16:10;12.20;99.90
5017;DHT22;2527;50.892;16.706;2024-03-06T11:23:32;12.10;99.90
5017;DHT22;2527;50.892;16.706;2024-03-06T11:26:02;12.10;99.90
5017;DHT22;2527;50.892;16.706;2024-03-06T11:28:29;12.10;99.90
5017;DHT22;2527;50.892;16.706;2024-03-06T11:30:56;12.10;99.90
5017;DHT22;2527;50.892;16.706;2024-03-06T11:33:36;12.10;99.90
5017;DHT22;2527;50.892;16.706;2024-03-06T11:38:57;12.10;99.90
5017;DHT22;2527;50.892;16.706;2024-03-06T11:41:28;12.10;99.90
5017;DHT22;2527;50.892;16.706;2024-03-06T11:43:57;12.00;99.90
5017;DHT22;2527;50.892;16.706;2024-03-06T11:49:19;12.00;99.90
5017;DHT22;2527;50.892;16.706;2024-03-06T11:51:47;12.10;99.90
5017;DHT22;2527;50.892;16.706;2024-03-06T11:54:13;12.00;99.90
5017;DHT22;2527;50.892;16.706;2024-03-06T11:56:39;12.10;99.90
5017;DHT22;2527;50.892;16.706;2024-03-06T11:59:05;12.10;99.90
5017;DHT22;2527;50.892;16.706;2024-03-06T12:01:35;12.10;99.90
5017;DHT22;2527;50.892;16.706;2024-03-06T12:04:02;12.10;99.90
5017;DHT22;2527;50.892;16.706;2024-03-06T12:06:28;12.10;99.90
5017;DHT22;2527;50.892;16.706;2024-03-06T12:08:54;12.10;99.90
5017;DHT22;2527;50.892;16.706;2024-03-06T12:11:20;12.10;99.90
5017;DHT22;2527;50.892;16.706;2024-03-06T12:13:47;12.10;99.90
5017;DHT22;2527;50.892;16.706;2024-03-06T12:16:13;12.10;99.90
5017;DHT22;2527;50.892;16.706;2024-03-06T12:18:39;12.10;99.90
5017;DHT22;2527;50.892;16.706;2024-03-06T12:21:06;12.10;99.90
5017;DHT22;2527;50.892;16.706;2024-03-06T12:23:33;12.00;99.90
5017;DHT22;2527;50.892;16.706;2024-03-06T12:26:02;12.10;99.90
5017;DHT22;2527;50.892;16.706;2024-03-06T12:28:28;12.00;99.90
5017;DHT22;2527;50.892;16.706;2024-03-06T12:30:55;12.00;99.90
5017;DHT22;2527;50.892;16.706;2024-03-06T12:33:21;12.10;99.90
5017;DHT22;2527;50.892;16.706;2024-03-06T12:35:48;13.70;99.90
5017;DHT22;2527;50.892;16.706;2024-03-06T12:38:14;12.00;99.90
5017;DHT22;2527;50.892;16.706;2024-03-06T12:40:42;12.00;99.90
5017;DHT22;2527;50.892;16.706;2024-03-06T12:43:08;12.00;99.90
5017;DHT22;2527;50.892;16.706;2024-03-06T12:45:34;12.00;99.90
5017;DHT22;2527;50.892;16.706;2024-03-06T12:48:00;12.00;99.90
5017;DHT22;2527;50.892;16.706;2024-03-06T12:50:25;12.00;99.90
5017;DHT22;2527;50.892;16.706;2024-03-06T12:52:52;12.00;99.90
5017;DHT22;2527;50.892;16.706;2024-03-06T12:55:18;12.00;99.90
5017;DHT22;2527;50.892;16.706;2024-03-06T12:57:44;12.00;99.90
5017;DHT22;2527;50.892;16.706;2024-03-06T13:00:10;12.00;99.90
5017;DHT22;2527;50.892;16.706;2024-03-06T13:02:44;12.00;99.90
5017;DHT22;2527;50.892;16.706;2024-03-06T13:05:10;11.90;99.90
5017;DHT22;2527;50.892;16.706;2024-03-06T13:07:36;11.90;99.90
5017;DHT22;2527;50.892;16.706;2024-03-06T13:10:02;11.90;99.90
5017;DHT22;2527;50.892;16.706;2024-03-06T13:12:28;11.90;99.90
5017;DHT22;2527;50.892;16.706;2024-03-06T13:14:54;11.80;99.90
5017;DHT22;2527;50.892;16.706;2024-03-06T13:17:20;11.80;99.90
5017;DHT22;2527;50.892;16.706;2024-03-06T13:19:45;11.70;99.90
5017;DHT22;2527;50.892;16.706;2024-03-06T13:22:11;11.70;99.90
5017;DHT22;2527;50.892;16.706;2024-03-06T13:24:37;11.70;99.90
5017;DHT22;2527;50.892;16.706;2024-03-06T13:27:04;11.70;99.90
5017;DHT22;2527;50.892;16.706;2024-03-06T13:29:30;11.70;99.90
5017;DHT22;2527;50.892;16.706;2024-03-06T13:31:56;11.70;99.90
5017;DHT22;2527;50.892;16.706;2024-03-06T13:34:22;11.70;99.90
5017;DHT22;2527;50.892;16.706;2024-03-06T13:36:47;11.60;99.90
5017;DHT22;2527;50.892;16.706;2024-03-06T13:39:13;11.60;99.90
5017;DHT22;2527;50.892;16.706;2024-03-06T13:41:39;11.60;99.90
5017;DHT22;2527;50.892;16.706;2024-03-06T13:44:06;11.60;99.90
5017;DHT22;2527;50.892;16.706;2024-03-06T13:46:44;11.60;99.90
5017;DHT22;2527;50.892;16.706;2024-03-06T13:49:33;11.50;99.90
5017;DHT22;2527;50.892;16.706;2024-03-06T13:51:57;11.50;99.90
5017;DHT22;2527;50.892;16.706;2024-03-06T13:54:22;11.50;99.90
5017;DHT22;2527;50.892;16.706;2024-03-06T13:56:48;11.50;99.90
5017;DHT22;2527;50.892;16.706;2024-03-06T13:59:15;11.50;99.90
5017;DHT22;2527;50.892;16.706;2024-03-06T14:01:41;11.50;99.90
5017;DHT22;2527;50.892;16.706;2024-03-06T14:04:07;11.40;99.90
5017;DHT22;2527;50.892;16.706;2024-03-06T14:06:32;11.40;99.90
5017;DHT22;2527;50.892;16.706;2024-03-06T14:09:00;11.40;99.90
5017;DHT22;2527;50.892;16.706;2024-03-06T14:11:26;11.40;99.90
5017;DHT22;2527;50.892;16.706;2024-03-06T14:13:53;11.40;99.90
5017;DHT22;2527;50.892;16.706;2024-03-06T14:16:21;11.40;99.90
5017;DHT22;2527;50.892;16.706;2024-03-06T14:18:47;11.40;99.90
5017;DHT22;2527;50.892;16.706;2024-03-06T14:21:12;11.40;99.90
5017;DHT22;2527;50.892;16.706;2024-03-06T14:23:38;11.40;99.90
5017;DHT22;2527;50.892;16.706;2024-03-06T14:26:04;11.00;99.90
5017;DHT22;2527;50.892;16.706;2024-03-06T14:28:32;11.30;99.90
5017;DHT22;2527;50.892;16.706;2024-03-06T14:31:02;11.30;99.90
5017;DHT22;2527;50.892;16.706;2024-03-06T14:33:28;11.30;99.90
5017;DHT22;2527;50.892;16.706;2024-03-06T14:35:54;11.30;99.90
5017;DHT22;2527;50.892;16.706;2024-03-06T14:38:19;11.30;99.90
5017;DHT22;2527;50.892;16.706;2024-03-06T14:40:47;11.30;99.90
5017;DHT22;2527;50.892;16.706;2024-03-06T14:43:13;11.30;99.90
5017;DHT22;2527;50.892;16.706;2024-03-06T14:45:44;11.30;99.90
5017;DHT22;2527;50.892;16.706;2024-03-06T14:48:10;11.30;99.90
5017;DHT22;2527;50.892;16.706;2024-03-06T14:50:35;11.30;99.90
5017;DHT22;2527;50.892;16.706;2024-03-06T14:53:01;11.20;99.90
5017;DHT22;2527;50.892;16.706;2024-03-06T14:55:28;11.20;99.90
5017;DHT22;2527;50.892;16.706;2024-03-06T14:57:54;11.20;99.90
5017;DHT22;2527;50.892;16.706;2024-03-06T15:00:20;11.20;99.90
5017;DHT22;2527;50.892;16.706;2024-03-06T15:02:49;11.20;99.90
5017;DHT22;2527;50.892;16.706;2024-03-06T15:05:15;11.20;99.90
5017;DHT22;2527;50.892;16.706;2024-03-06T15:07:40;11.20;99.90
5017;DHT22;2527;50.892;16.706;2024-03-06T15:10:07;11.20;99.90
5017;DHT22;2527;50.892;16.706;2024-03-06T15:12:36;11.20;99.90
5017;DHT22;2527;50.892;16.706;2024-03-06T15:15:03;11.20;99.90
5017;DHT22;2527;50.892;16.706;2024-03-06T15:17:31;11.20;99.90
5017;DHT22;2527;50.892;16.706;2024-03-06T15:19:58;11.10;99.90
5017;DHT22;2527;50.892;16.706;2024-03-06T15:22:24;11.10;99.90
5017;DHT22;2527;50.892;16.706;2024-03-06T15:24:52;11.10;99.90
5017;DHT22;2527;50.892;16.706;2024-03-06T15:27:19;11.10;99.90
5017;DHT22;2527;50.892;16.706;2024-03-06T15:29:45;11.10;99.90
5017;DHT22;2527;50.892;16.706;2024-03-06T15:32:10;11.10;99.90
5017;DHT22;2527;50.892;16.706;2024-03-06T15:34:38;11.00;99.90
5017;DHT22;2527;50.892;16.706;2024-03-06T15:37:04;11.00;99.90
5017;DHT22;2527;50.892;16.706;2024-03-06T15:39:30;10.00;99.90
5017;DHT22;2527;50.892;16.706;2024-03-06T15:41:56;11.00;99.90
5017;DHT22;2527;50.892;16.706;2024-03-06T15:44:22;11.00;99.90
5017;DHT22;2527;50.892;16.706;2024-03-06T15:46:49;11.00;99.90
5017;DHT22;2527;50.892;16.706;2024-03-06T15:49:19;11.00;99.90
5017;DHT22;2527;50.892;16.706;2024-03-06T15:51:46;10.90;99.90
5017;DHT22;2527;50.892;16.706;2024-03-06T15:54:11;10.90;99.90
5017;DHT22;2527;50.892;16.706;2024-03-06T15:56:37;10.90;99.90
5017;DHT22;2527;50.892;16.706;2024-03-06T15:59:03;11.00;99.90
5017;DHT22;2527;50.892;16.706;2024-03-06T16:01:29;10.90;99.90
5017;DHT22;2527;50.892;16.706;2024-03-06T16:03:55;10.90;99.90